Latest Coastal Weather Observations for Rosslyn Bay Harbour

IDQ60701

Issued at 10:45 pm EST Thursday 17 April 2014 (issued every 10 minutes, with the page automatically refreshed every 10 minutes)

About coastal observations | Map of coastal stations | Coastal observations for QLD | Marine services | Other Formats
Station Details ID: 033208 Name: ROSSLYN BAY NTC AWS Lat: -23.16 Lon: 150.79 Height: 0.0 m
Data from the previous 72 hours. | See also: Recent months for locations in Queensland
Date/Time
EST
Temp

°C
Wind Pressure Rain
since 9am
mm
Weather Cloud Vis
km
Sea
Height
m
Swell
Dir
 
Speed
knots
Gust
knots
hPa Trend Height
m
Period
s
Dir
17/10:30pm 23.0 SW 0 0 1016.8 - - - - - - - - -
17/10:00pm 23.3 SW 1 2 1016.9 - - - - - - - - -
17/09:30pm 23.4 WSW 2 3 1016.8 - - - - - - - - -
17/09:00pm 24.4 N 3 5 1016.8 - - - - - - - - -
17/08:30pm 24.3 NNE 3 4 1016.7 - - - - - - - - -
17/08:00pm 24.3 N 3 5 1016.5 - - - - - - - - -
17/07:30pm 23.7 NNW 5 7 1016.2 - - - - - - - - -
17/07:00pm 23.8 NNW 7 9 1015.6 - - - - - - - - -
17/06:30pm 23.9 NNW 7 9 1015.0 - - - - - - - - -
17/06:00pm 25.3 NNE 8 11 1014.7 - - - - - - - - -
17/05:30pm 25.3 N 9 12 1014.5 - - - - - - - - -
17/05:00pm 25.3 N 8 11 1014.2 - - - - - - - - -
17/04:30pm 25.2 NNE 8 13 1014.0 - - - - - - - - -
17/04:00pm 25.2 S 3 8 1014.3 - - - - - - - - -
17/03:30pm 25.3 ENE 6 9 1014.3 - - - - - - - - -
17/03:00pm 25.2 NE 6 10 1014.1 - - - - - - - - -
17/02:30pm 25.1 NE 4 7 1014.2 - - - - - - - - -
17/02:00pm 24.9 NE 5 8 1014.5 - - - - - - - - -
17/01:30pm 24.9 NE 6 8 1014.9 - - - - - - - - -
17/01:00pm 25.7 ENE 4 9 1015.2 - - - - - - - - -
17/12:30pm 25.4 ENE 3 5 1015.8 - - - - - - - - -
17/12:00pm 25.5 S 3 5 1016.2 - - - - - - - - -
17/11:30am 25.3 S 2 6 1016.7 - - - - - - - - -
17/11:00am 24.5 S 4 7 1017.2 - - - - - - - - -
17/10:30am 24.2 S 2 5 1017.5 - - - - - - - - -
17/10:00am 24.1 S 6 9 1017.6 - - - - - - - - -
17/09:30am 24.2 S 6 9 1017.6 - - - - - - - - -
17/09:00am 25.0 S 2 4 1017.5 - - - - - - - - -
17/08:30am 23.9 S 3 4 1017.4 - - - - - - - - -
17/08:00am 22.9 S 4 7 1017.2 - - - - - - - - -
17/07:30am 21.7 S 4 7 1017.0 - - - - - - - - -
17/07:00am 21.5 S 5 6 1016.7 - - - - - - - - -
17/06:30am 21.2 S 5 7 1016.3 - - - - - - - - -
17/06:00am 21.2 S 4 6 1016.0 - - - - - - - - -
17/05:30am 21.5 S 4 5 1015.7 - - - - - - - - -
17/05:00am 22.9 S 2 2 1015.4 - - - - - - - - -
17/04:30am 22.4 SW 1 2 1015.2 - - - - - - - - -
17/04:00am 22.2 SW 1 2 1015.0 - - - - - - - - -
17/03:30am 22.4 S 2 3 1014.9 - - - - - - - - -
17/03:00am 22.0 S 4 6 1014.9 - - - - - - - - -
17/02:30am 23.0 SW 1 1 1014.8 - - - - - - - - -
17/02:00am 23.2 SSW 1 3 1014.8 - - - - - - - - -
17/01:30am 23.1 WSW 2 3 1014.9 - - - - - - - - -
17/01:00am 23.6 WNW 1 2 1015.2 - - - - - - - - -
17/12:30am 23.9 WNW 2 3 1015.4 - - - - - - - - -
17/12:00am 24.4 NNW 4 6 1015.6 - - - - - - - - -
 
Date/Time
EST
Temp

°C
Wind Pressure Rain
since 9am
mm
Weather Cloud Vis
km
Sea
Height
m
Swell
Dir
 
Speed
knots
Gust
knots
hPa Trend Height
m
Period
s
Dir
16/11:30pm 24.9 NE 5 8 1015.6 - - - - - - - - -
16/11:00pm 24.9 NE 6 9 1015.6 - - - - - - - - -
16/10:30pm 24.9 NE 6 8 1015.7 - - - - - - - - -
16/10:00pm 25.0 NE 6 9 1015.3 - - - - - - - - -
16/09:30pm 24.9 ENE 7 10 1015.2 - - - - - - - - -
16/09:00pm 24.9 ENE 6 10 1015.2 - - - - - - - - -
16/08:30pm 24.9 NE 8 12 1015.0 - - - - - - - - -
16/08:00pm 24.9 NNE 7 11 1014.9 - - - - - - - - -
16/07:30pm 24.9 NNE 8 11 1014.7 - - - - - - - - -
16/07:00pm 24.9 NNE 7 12 1014.3 - - - - - - - - -
16/06:30pm 24.9 NNE 8 12 1013.9 - - - - - - - - -
16/06:00pm 24.9 NE 7 11 1013.7 - - - - - - - - -
16/05:30pm 24.9 NNE 7 12 1013.2 - - - - - - - - -
16/05:00pm 25.0 NE 6 9 1013.2 - - - - - - - - -
16/04:30pm 24.8 ENE 6 10 1013.0 - - - - - - - - -
16/04:00pm 25.4 ENE 4 9 1012.9 - - - - - - - - -
16/03:30pm 25.4 ENE 4 11 1012.9 - - - - - - - - -
16/03:00pm 25.8 ENE 6 11 1013.2 - - - - - - - - -
16/02:30pm 25.1 ENE 7 10 1013.3 - - - - - - - - -
16/02:00pm 24.8 WSW 3 6 1013.4 - - - - - - - - -
16/01:30pm 25.3 S 2 6 1014.0 - - - - - - - - -
16/01:00pm 24.9 S 3 7 1014.2 - - - - - - - - -
16/12:30pm 24.5 S 5 10 1014.3 - - - - - - - - -
16/12:00pm 24.6 S 4 7 1014.9 - - - - - - - - -
16/11:30am 24.0 S 5 8 1015.3 - - - - - - - - -
16/11:00am 24.0 S 5 9 1015.7 - - - - - - - - -
16/10:30am 23.8 S 5 11 1016.1 - - - - - - - - -
16/10:00am 24.1 S 5 8 1016.4 - - - - - - - - -
16/09:30am 23.5 S 5 10 1016.4 - - - - - - - - -
16/09:00am 23.2 S 5 10 1016.2 - - - - - - - - -
16/08:30am 22.7 SSW 5 10 1016.1 - - - - - - - - -
16/08:00am 22.1 SSW 4 6 1016.0 - - - - - - - - -
16/07:30am 21.8 SSW 5 8 1015.8 - - - - - - - - -
16/07:00am 21.7 SSW 4 5 1015.5 - - - - - - - - -
16/06:30am 22.1 SSW 3 5 1015.2 - - - - - - - - -
16/06:00am 22.5 SW 2 5 1014.6 - - - - - - - - -
16/05:30am 22.1 SSE 1 5 1014.6 - - - - - - - - -
16/05:00am 22.1 S 3 8 1014.4 - - - - - - - - -
16/04:30am 22.4 S 3 6 1014.3 - - - - - - - - -
16/04:00am 22.9 S 4 8 1013.9 - - - - - - - - -
16/03:30am 23.1 S 7 12 1013.8 - - - - - - - - -
16/03:00am 24.3 SW 2 6 1013.8 - - - - - - - - -
16/02:30am 23.1 SSW 3 7 1013.9 - - - - - - - - -
16/02:00am 24.3 S 4 7 1014.0 - - - - - - - - -
16/01:30am 24.0 S 2 7 1014.2 - - - - - - - - -
16/01:00am 24.5 W 3 6 1014.4 - - - - - - - - -
16/12:30am 24.8 WSW 2 5 1014.8 - - - - - - - - -
16/12:00am 24.8 WSW 2 6 1014.8 - - - - - - - - -
 
Date/Time
EST
Temp

°C
Wind Pressure Rain
since 9am
mm
Weather Cloud Vis
km
Sea
Height
m
Swell
Dir
 
Speed
knots
Gust
knots
hPa Trend Height
m
Period
s
Dir
15/11:30pm 24.8 WSW 2 5 1014.9 - - - - - - - - -
15/11:00pm 24.9 WSW 2 4 1014.8 - - - - - - - - -
15/10:30pm 24.6 S 3 6 1014.9 - - - - - - - - -
15/10:00pm 24.6 SSW 2 6 1014.8 - - - - - - - - -
15/09:30pm 24.6 SSW 3 6 1014.8 - - - - - - - - -
15/09:00pm 24.8 SW 3 8 1014.6 - - - - - - - - -
15/08:30pm 24.7 E 3 9 1014.4 - - - - - - - - -
15/08:00pm 24.8 E 3 8 1014.4 - - - - - - - - -
15/07:30pm 24.7 E 2 6 1014.1 - - - - - - - - -
15/07:00pm 24.8 E 2 7 1013.9 - - - - - - - - -
15/06:30pm 25.0 ENE 4 10 1013.8 - - - - - - - - -
15/06:00pm 24.9 E 2 5 1013.5 - - - - - - - - -
15/05:30pm 25.0 WSW 3 6 1013.4 - - - - - - - - -
15/05:00pm 25.1 SSW 3 8 1013.0 - - - - - - - - -
15/04:30pm 25.3 S 3 7 1012.8 - - - - - - - - -
15/04:00pm 25.4 S 5 9 1012.7 - - - - - - - - -
15/03:30pm 25.2 S 8 11 1012.7 - - - - - - - - -
15/03:00pm 25.2 S 7 12 1012.5 - - - - - - - - -
15/02:30pm 25.1 S 9 13 1012.7 - - - - - - - - -
15/02:00pm 25.0 S 9 13 1012.8 - - - - - - - - -
15/01:30pm 25.0 S 8 13 1012.9 - - - - - - - - -
15/01:00pm 24.8 S 8 14 1013.0 - - - - - - - - -
15/12:30pm 24.6 S 7 14 1013.4 - - - - - - - - -
15/12:00pm 24.5 S 8 13 1013.8 - - - - - - - - -
15/11:30am 24.5 S 8 14 1014.3 - - - - - - - - -
15/11:00am 24.4 S 8 14 1014.6 - - - - - - - - -
15/10:30am 24.0 S 5 10 1014.8 - - - - - - - - -
15/10:00am 23.9 S 6 10 1015.1 - - - - - - - - -
15/09:30am 23.7 S 6 11 1015.2 - - - - - - - - -
15/09:00am 23.5 S 7 14 1014.9 - - - - - - - - -
15/08:30am 23.5 S 6 13 1014.8 - - - - - - - - -
15/08:00am 23.4 S 6 17 1014.6 - - - - - - - - -
15/07:30am 22.7 S 4 7 1014.4 - - - - - - - - -
15/07:00am 23.1 S 7 16 1014.3 - - - - - - - - -
15/06:30am 23.2 S 7 17 1013.9 - - - - - - - - -
15/06:00am 23.2 S 7 15 1013.4 - - - - - - - - -
15/05:30am 23.3 S 9 17 1013.1 - - - - - - - - -
15/05:00am 23.4 S 7 19 1012.8 - - - - - - - - -
15/04:30am 23.5 S 9 18 1012.7 - - - - - - - - -
15/04:00am 23.5 S 7 15 1012.5 - - - - - - - - -
15/03:30am 23.6 S 7 17 1012.6 - - - - - - - - -
15/03:00am 23.8 S 8 18 1012.4 - - - - - - - - -
15/02:30am 23.9 S 6 13 1012.4 - - - - - - - - -
15/02:00am 24.1 S 8 14 1012.5 - - - - - - - - -
15/01:30am 22.9 SSW 4 7 1012.6 - - - - - - - - -
15/01:00am 22.9 SSW 4 7 1012.6 - - - - - - - - -
15/12:30am 23.0 SSW 5 7 1012.5 - - - - - - - - -
15/12:00am 23.3 SSW 5 10 1012.5 - - - - - - - - -
 
Date/Time
EST
Temp

°C
Wind Pressure Rain
since 9am
mm
Weather Cloud Vis
km
Sea
Height
m
Swell
Dir
 
Speed
knots
Gust
knots
hPa Trend Height
m
Period
s
Dir
14/11:30pm 23.6 SSW 5 9 1012.5 - - - - - - - - -
14/11:00pm 22.8 SSW 3 4 1012.7 - - - - - - - - -

Other Formats:

Comma delimited format used in spreadsheet applications
http://www.bom.gov.au/fwo/IDQ60701/IDQ60701.95298.axf

JavaScript Object Notation format (JSON) in row-major order
http://www.bom.gov.au/fwo/IDQ60701/IDQ60701.95298.json